sensor_id;sensor_type;location;lat;lon;timestamp;P1;durP1;ratioP1;P2;durP2;ratioP2
7205;SDS011;3644;53.480;10.004;2022-09-03T00:01:27;11.13;;;6.33;;
7205;SDS011;3644;53.480;10.004;2022-09-03T00:04:02;16.50;;;9.03;;
7205;SDS011;3644;53.480;10.004;2022-09-03T00:06:37;28.97;;;12.33;;
7205;SDS011;3644;53.480;10.004;2022-09-03T00:09:12;42.03;;;16.57;;
7205;SDS011;3644;53.480;10.004;2022-09-03T00:12:02;37.83;;;19.00;;
7205;SDS011;3644;53.480;10.004;2022-09-03T00:14:40;55.17;;;22.67;;
7205;SDS011;3644;53.480;10.004;2022-09-03T00:17:13;68.77;;;29.23;;
7205;SDS011;3644;53.480;10.004;2022-09-03T00:19:51;83.07;;;32.60;;
7205;SDS011;3644;53.480;10.004;2022-09-03T00:22:34;107.67;;;37.07;;
7205;SDS011;3644;53.480;10.004;2022-09-03T00:25:04;89.47;;;36.00;;
7205;SDS011;3644;53.480;10.004;2022-09-03T00:27:36;81.37;;;33.53;;
7205;SDS011;3644;53.480;10.004;2022-09-03T00:30:05;88.53;;;36.67;;
7205;SDS011;3644;53.480;10.004;2022-09-03T00:35:16;85.73;;;32.67;;
7205;SDS011;3644;53.480;10.004;2022-09-03T00:37:49;74.10;;;29.57;;
7205;SDS011;3644;53.480;10.004;2022-09-03T00:51:40;55.63;;;22.50;;
7205;SDS011;3644;53.480;10.004;2022-09-03T00:54:28;58.27;;;22.60;;
7205;SDS011;3644;53.480;10.004;2022-09-03T00:59:56;47.43;;;21.70;;
7205;SDS011;3644;53.480;10.004;2022-09-03T01:08:08;43.70;;;18.17;;
7205;SDS011;3644;53.480;10.004;2022-09-03T01:10:54;42.80;;;16.00;;
7205;SDS011;3644;53.480;10.004;2022-09-03T01:16:14;33.33;;;13.47;;
7205;SDS011;3644;53.480;10.004;2022-09-03T01:19:11;28.20;;;12.40;;
7205;SDS011;3644;53.480;10.004;2022-09-03T01:30:34;10.80;;;5.40;;
7205;SDS011;3644;53.480;10.004;2022-09-03T01:33:28;10.07;;;3.40;;
7205;SDS011;3644;53.480;10.004;2022-09-03T01:38:39;6.63;;;2.97;;
7205;SDS011;3644;53.480;10.004;2022-09-03T01:41:25;4.23;;;1.60;;
7205;SDS011;3644;53.480;10.004;2022-09-03T01:44:39;3.07;;;2.17;;
7205;SDS011;3644;53.480;10.004;2022-09-03T01:52:42;3.40;;;2.23;;
7205;SDS011;3644;53.480;10.004;2022-09-03T01:58:01;3.90;;;2.77;;
7205;SDS011;3644;53.480;10.004;2022-09-03T02:00:52;8.70;;;2.30;;
7205;SDS011;3644;53.480;10.004;2022-09-03T02:03:23;4.43;;;1.80;;
7205;SDS011;3644;53.480;10.004;2022-09-03T02:05:51;5.17;;;2.17;;
7205;SDS011;3644;53.480;10.004;2022-09-03T02:08:17;2.57;;;1.77;;
7205;SDS011;3644;53.480;10.004;2022-09-03T02:10:46;3.83;;;1.97;;
7205;SDS011;3644;53.480;10.004;2022-09-03T02:13:16;3.23;;;2.33;;
7205;SDS011;3644;53.480;10.004;2022-09-03T02:15:49;1.73;;;1.63;;
7205;SDS011;3644;53.480;10.004;2022-09-03T02:18:18;6.23;;;2.83;;
7205;SDS011;3644;53.480;10.004;2022-09-03T02:20:47;2.67;;;2.27;;
7205;SDS011;3644;53.480;10.004;2022-09-03T02:23:15;3.30;;;2.00;;
7205;SDS011;3644;53.480;10.004;2022-09-03T02:25:43;5.43;;;2.37;;
7205;SDS011;3644;53.480;10.004;2022-09-03T02:28:12;4.30;;;2.60;;
7205;SDS011;3644;53.480;10.004;2022-09-03T02:30:39;7.90;;;2.03;;
7205;SDS011;3644;53.480;10.004;2022-09-03T02:33:04;3.47;;;2.40;;
7205;SDS011;3644;53.480;10.004;2022-09-03T02:35:30;2.20;;;1.80;;
7205;SDS011;3644;53.480;10.004;2022-09-03T02:37:56;2.20;;;1.90;;
7205;SDS011;3644;53.480;10.004;2022-09-03T02:40:21;2.87;;;1.83;;
7205;SDS011;3644;53.480;10.004;2022-09-03T02:42:47;3.40;;;1.70;;
7205;SDS011;3644;53.480;10.004;2022-09-03T02:45:21;4.13;;;2.00;;
7205;SDS011;3644;53.480;10.004;2022-09-03T02:47:52;2.40;;;1.73;;
7205;SDS011;3644;53.480;10.004;2022-09-03T02:50:21;3.00;;;2.03;;
7205;SDS011;3644;53.480;10.004;2022-09-03T02:52:47;4.30;;;1.40;;
7205;SDS011;3644;53.480;10.004;2022-09-03T02:55:12;2.40;;;1.20;;
7205;SDS011;3644;53.480;10.004;2022-09-03T02:57:38;1.30;;;1.20;;
7205;SDS011;3644;53.480;10.004;2022-09-03T03:00:03;1.17;;;1.10;;
7205;SDS011;3644;53.480;10.004;2022-09-03T03:02:29;2.73;;;1.30;;
7205;SDS011;3644;53.480;10.004;2022-09-03T03:04:55;1.60;;;1.33;;
7205;SDS011;3644;53.480;10.004;2022-09-03T03:07:20;3.70;;;1.83;;
7205;SDS011;3644;53.480;10.004;2022-09-03T03:09:46;1.50;;;1.40;;
7205;SDS011;3644;53.480;10.004;2022-09-03T03:12:11;1.83;;;1.50;;
7205;SDS011;3644;53.480;10.004;2022-09-03T03:14:37;2.00;;;1.20;;
7205;SDS011;3644;53.480;10.004;2022-09-03T03:17:02;1.63;;;1.53;;
7205;SDS011;3644;53.480;10.004;2022-09-03T03:19:28;2.60;;;1.40;;
7205;SDS011;3644;53.480;10.004;2022-09-03T03:21:53;4.20;;;1.20;;
7205;SDS011;3644;53.480;10.004;2022-09-03T03:24:19;1.37;;;1.27;;
7205;SDS011;3644;53.480;10.004;2022-09-03T03:26:44;5.33;;;1.40;;
7205;SDS011;3644;53.480;10.004;2022-09-03T03:29:13;1.07;;;1.07;;
7205;SDS011;3644;53.480;10.004;2022-09-03T03:31:41;4.30;;;1.33;;
7205;SDS011;3644;53.480;10.004;2022-09-03T03:34:06;1.53;;;1.43;;
7205;SDS011;3644;53.480;10.004;2022-09-03T03:36:32;1.93;;;1.47;;
7205;SDS011;3644;53.480;10.004;2022-09-03T03:38:58;1.50;;;1.40;;
7205;SDS011;3644;53.480;10.004;2022-09-03T03:41:29;6.70;;;1.40;;
7205;SDS011;3644;53.480;10.004;2022-09-03T03:43:57;1.80;;;1.43;;
7205;SDS011;3644;53.480;10.004;2022-09-03T03:46:27;7.17;;;1.17;;
7205;SDS011;3644;53.480;10.004;2022-09-03T03:48:55;1.83;;;1.50;;
7205;SDS011;3644;53.480;10.004;2022-09-03T03:51:20;2.33;;;1.37;;
7205;SDS011;3644;53.480;10.004;2022-09-03T03:53:46;3.93;;;1.50;;
7205;SDS011;3644;53.480;10.004;2022-09-03T03:56:12;3.10;;;1.60;;
7205;SDS011;3644;53.480;10.004;2022-09-03T03:58:39;4.33;;;1.23;;
7205;SDS011;3644;53.480;10.004;2022-09-03T04:01:13;1.50;;;1.40;;
7205;SDS011;3644;53.480;10.004;2022-09-03T04:03:42;3.20;;;1.77;;
7205;SDS011;3644;53.480;10.004;2022-09-03T04:06:09;1.67;;;1.57;;
7205;SDS011;3644;53.480;10.004;2022-09-03T04:08:38;1.30;;;1.20;;
7205;SDS011;3644;53.480;10.004;2022-09-03T04:11:06;1.33;;;1.20;;
7205;SDS011;3644;53.480;10.004;2022-09-03T04:13:34;1.87;;;1.40;;
7205;SDS011;3644;53.480;10.004;2022-09-03T04:16:02;1.67;;;1.53;;
7205;SDS011;3644;53.480;10.004;2022-09-03T04:18:32;1.27;;;1.23;;
7205;SDS011;3644;53.480;10.004;2022-09-03T04:20:59;4.10;;;1.77;;
7205;SDS011;3644;53.480;10.004;2022-09-03T04:23:36;2.13;;;1.50;;
7205;SDS011;3644;53.480;10.004;2022-09-03T04:26:04;1.97;;;1.07;;
7205;SDS011;3644;53.480;10.004;2022-09-03T04:28:30;1.50;;;1.20;;
7205;SDS011;3644;53.480;10.004;2022-09-03T04:31:03;2.70;;;1.30;;
7205;SDS011;3644;53.480;10.004;2022-09-03T04:33:31;2.80;;;1.20;;
7205;SDS011;3644;53.480;10.004;2022-09-03T04:38:29;2.17;;;1.63;;
7205;SDS011;3644;53.480;10.004;2022-09-03T04:40:56;8.90;;;1.40;;
7205;SDS011;3644;53.480;10.004;2022-09-03T04:43:23;2.90;;;1.70;;
7205;SDS011;3644;53.480;10.004;2022-09-03T04:45:49;3.70;;;1.70;;
7205;SDS011;3644;53.480;10.004;2022-09-03T04:48:14;2.57;;;1.90;;
7205;SDS011;3644;53.480;10.004;2022-09-03T04:50:40;1.40;;;1.30;;
7205;SDS011;3644;53.480;10.004;2022-09-03T04:53:06;1.90;;;1.10;;
7205;SDS011;3644;53.480;10.004;2022-09-03T04:55:32;2.90;;;1.67;;
7205;SDS011;3644;53.480;10.004;2022-09-03T04:57:59;1.77;;;1.50;;
7205;SDS011;3644;53.480;10.004;2022-09-03T05:00:24;1.50;;;1.33;;
7205;SDS011;3644;53.480;10.004;2022-09-03T05:02:50;2.03;;;1.43;;
7205;SDS011;3644;53.480;10.004;2022-09-03T05:05:16;12.30;;;1.80;;
7205;SDS011;3644;53.480;10.004;2022-09-03T05:07:42;1.43;;;1.33;;
7205;SDS011;3644;53.480;10.004;2022-09-03T05:10:09;1.20;;;1.10;;
7205;SDS011;3644;53.480;10.004;2022-09-03T05:12:46;2.80;;;1.80;;
7205;SDS011;3644;53.480;10.004;2022-09-03T05:15:13;4.00;;;1.60;;
7205;SDS011;3644;53.480;10.004;2022-09-03T05:17:39;1.67;;;1.43;;
7205;SDS011;3644;53.480;10.004;2022-09-03T05:20:05;3.13;;;1.17;;
7205;SDS011;3644;53.480;10.004;2022-09-03T05:22:33;3.87;;;1.43;;
7205;SDS011;3644;53.480;10.004;2022-09-03T05:24:58;2.17;;;1.30;;
7205;SDS011;3644;53.480;10.004;2022-09-03T05:27:24;2.10;;;1.00;;
7205;SDS011;3644;53.480;10.004;2022-09-03T05:29:49;4.20;;;1.70;;
7205;SDS011;3644;53.480;10.004;2022-09-03T05:32:15;2.73;;;1.33;;
7205;SDS011;3644;53.480;10.004;2022-09-03T05:34:41;1.37;;;1.20;;
7205;SDS011;3644;53.480;10.004;2022-09-03T05:37:07;2.30;;;1.40;;
7205;SDS011;3644;53.480;10.004;2022-09-03T05:39:33;1.60;;;1.50;;
7205;SDS011;3644;53.480;10.004;2022-09-03T05:41:59;4.70;;;1.20;;
7205;SDS011;3644;53.480;10.004;2022-09-03T05:44:25;8.50;;;1.63;;
7205;SDS011;3644;53.480;10.004;2022-09-03T05:46:50;1.60;;;1.43;;
7205;SDS011;3644;53.480;10.004;2022-09-03T05:49:16;2.60;;;1.57;;
7205;SDS011;3644;53.480;10.004;2022-09-03T05:51:41;4.10;;;1.20;;
7205;SDS011;3644;53.480;10.004;2022-09-03T05:54:08;1.40;;;1.10;;
7205;SDS011;3644;53.480;10.004;2022-09-03T05:56:35;1.73;;;1.27;;
7205;SDS011;3644;53.480;10.004;2022-09-03T05:59:03;5.30;;;1.47;;
7205;SDS011;3644;53.480;10.004;2022-09-03T06:01:36;2.90;;;1.37;;
7205;SDS011;3644;53.480;10.004;2022-09-03T06:04:04;3.33;;;1.80;;
7205;SDS011;3644;53.480;10.004;2022-09-03T06:06:33;1.33;;;1.23;;
7205;SDS011;3644;53.480;10.004;2022-09-03T06:09:03;2.27;;;1.50;;
7205;SDS011;3644;53.480;10.004;2022-09-03T06:11:30;1.97;;;1.50;;
7205;SDS011;3644;53.480;10.004;2022-09-03T06:13:59;2.03;;;1.00;;
7205;SDS011;3644;53.480;10.004;2022-09-03T06:16:25;6.10;;;1.73;;
7205;SDS011;3644;53.480;10.004;2022-09-03T06:18:51;1.47;;;1.20;;
7205;SDS011;3644;53.480;10.004;2022-09-03T06:21:18;3.77;;;1.23;;
7205;SDS011;3644;53.480;10.004;2022-09-03T06:23:48;1.73;;;1.27;;
7205;SDS011;3644;53.480;10.004;2022-09-03T06:26:15;1.50;;;1.10;;
7205;SDS011;3644;53.480;10.004;2022-09-03T06:28:42;2.33;;;1.37;;
7205;SDS011;3644;53.480;10.004;2022-09-03T06:31:08;2.47;;;1.30;;
7205;SDS011;3644;53.480;10.004;2022-09-03T06:33:36;1.37;;;1.23;;
7205;SDS011;3644;53.480;10.004;2022-09-03T06:36:04;3.60;;;1.50;;
7205;SDS011;3644;53.480;10.004;2022-09-03T06:38:32;6.23;;;1.37;;
7205;SDS011;3644;53.480;10.004;2022-09-03T06:41:13;3.70;;;1.30;;
7205;SDS011;3644;53.480;10.004;2022-09-03T06:43:49;1.50;;;1.40;;
7205;SDS011;3644;53.480;10.004;2022-09-03T06:46:20;1.43;;;1.33;;
7205;SDS011;3644;53.480;10.004;2022-09-03T06:48:47;1.27;;;1.17;;
7205;SDS011;3644;53.480;10.004;2022-09-03T06:51:16;6.03;;;1.63;;
7205;SDS011;3644;53.480;10.004;2022-09-03T06:53:44;12.90;;;1.50;;
7205;SDS011;3644;53.480;10.004;2022-09-03T06:56:13;3.90;;;1.50;;
7205;SDS011;3644;53.480;10.004;2022-09-03T06:58:46;1.67;;;1.23;;
7205;SDS011;3644;53.480;10.004;2022-09-03T07:01:13;1.53;;;1.43;;
7205;SDS011;3644;53.480;10.004;2022-09-03T07:03:41;6.73;;;1.80;;
7205;SDS011;3644;53.480;10.004;2022-09-03T07:06:12;2.63;;;1.40;;
7205;SDS011;3644;53.480;10.004;2022-09-03T07:08:42;3.10;;;1.00;;
7205;SDS011;3644;53.480;10.004;2022-09-03T07:11:09;1.80;;;1.40;;
7205;SDS011;3644;53.480;10.004;2022-09-03T07:13:40;6.40;;;1.50;;
7205;SDS011;3644;53.480;10.004;2022-09-03T07:16:09;3.10;;;1.23;;
7205;SDS011;3644;53.480;10.004;2022-09-03T07:18:36;1.63;;;1.37;;
7205;SDS011;3644;53.480;10.004;2022-09-03T07:21:03;3.60;;;1.63;;
7205;SDS011;3644;53.480;10.004;2022-09-03T07:23:34;2.03;;;1.70;;
7205;SDS011;3644;53.480;10.004;2022-09-03T07:26:02;1.80;;;1.40;;
7205;SDS011;3644;53.480;10.004;2022-09-03T07:28:29;5.40;;;1.83;;
7205;SDS011;3644;53.480;10.004;2022-09-03T07:31:05;2.27;;;2.07;;
7205;SDS011;3644;53.480;10.004;2022-09-03T07:33:36;2.90;;;1.30;;
7205;SDS011;3644;53.480;10.004;2022-09-03T07:36:03;2.27;;;1.50;;
7205;SDS011;3644;53.480;10.004;2022-09-03T07:38:31;2.80;;;1.50;;
7205;SDS011;3644;53.480;10.004;2022-09-03T07:40:58;2.10;;;1.37;;
7205;SDS011;3644;53.480;10.004;2022-09-03T07:43:25;5.13;;;1.83;;
7205;SDS011;3644;53.480;10.004;2022-09-03T07:45:57;1.50;;;1.13;;
7205;SDS011;3644;53.480;10.004;2022-09-03T07:48:23;2.67;;;1.40;;
7205;SDS011;3644;53.480;10.004;2022-09-03T07:50:49;6.97;;;1.50;;
7205;SDS011;3644;53.480;10.004;2022-09-03T07:53:15;4.70;;;1.30;;
7205;SDS011;3644;53.480;10.004;2022-09-03T07:55:41;3.27;;;1.70;;
7205;SDS011;3644;53.480;10.004;2022-09-03T07:58:08;4.13;;;1.90;;
7205;SDS011;3644;53.480;10.004;2022-09-03T08:00:35;9.93;;;1.13;;
7205;SDS011;3644;53.480;10.004;2022-09-03T08:03:00;2.20;;;1.10;;
7205;SDS011;3644;53.480;10.004;2022-09-03T08:05:31;2.20;;;1.40;;
7205;SDS011;3644;53.480;10.004;2022-09-03T08:07:58;1.73;;;1.37;;
7205;SDS011;3644;53.480;10.004;2022-09-03T08:10:25;1.63;;;1.40;;
7205;SDS011;3644;53.480;10.004;2022-09-03T08:12:54;3.10;;;1.47;;
7205;SDS011;3644;53.480;10.004;2022-09-03T08:15:20;1.47;;;1.20;;
7205;SDS011;3644;53.480;10.004;2022-09-03T08:17:45;10.07;;;2.10;;
7205;SDS011;3644;53.480;10.004;2022-09-03T08:20:11;3.67;;;1.17;;
7205;SDS011;3644;53.480;10.004;2022-09-03T08:22:36;2.33;;;1.50;;
7205;SDS011;3644;53.480;10.004;2022-09-03T08:25:02;2.17;;;1.47;;
7205;SDS011;3644;53.480;10.004;2022-09-03T08:27:28;3.07;;;1.30;;
7205;SDS011;3644;53.480;10.004;2022-09-03T08:29:54;3.20;;;1.33;;
7205;SDS011;3644;53.480;10.004;2022-09-03T08:32:19;4.50;;;1.90;;
7205;SDS011;3644;53.480;10.004;2022-09-03T08:34:45;4.43;;;1.40;;
7205;SDS011;3644;53.480;10.004;2022-09-03T08:37:11;3.80;;;1.33;;
7205;SDS011;3644;53.480;10.004;2022-09-03T08:39:37;5.07;;;1.30;;
7205;SDS011;3644;53.480;10.004;2022-09-03T08:44:45;2.03;;;1.40;;
7205;SDS011;3644;53.480;10.004;2022-09-03T08:47:21;4.90;;;1.63;;
7205;SDS011;3644;53.480;10.004;2022-09-03T08:52:33;2.17;;;1.37;;
7205;SDS011;3644;53.480;10.004;2022-09-03T08:57:57;2.80;;;1.20;;
7205;SDS011;3644;53.480;10.004;2022-09-03T09:00:39;15.03;;;3.60;;
7205;SDS011;3644;53.480;10.004;2022-09-03T09:11:34;5.70;;;1.60;;
7205;SDS011;3644;53.480;10.004;2022-09-03T09:14:24;1.53;;;1.30;;
7205;SDS011;3644;53.480;10.004;2022-09-03T09:25:06;5.40;;;1.10;;
7205;SDS011;3644;53.480;10.004;2022-09-03T09:27:38;4.27;;;1.13;;
7205;SDS011;3644;53.480;10.004;2022-09-03T09:30:10;4.67;;;1.30;;
7205;SDS011;3644;53.480;10.004;2022-09-03T09:32:40;2.77;;;1.83;;
7205;SDS011;3644;53.480;10.004;2022-09-03T09:35:09;2.53;;;1.33;;
7205;SDS011;3644;53.480;10.004;2022-09-03T09:37:45;2.80;;;1.47;;
7205;SDS011;3644;53.480;10.004;2022-09-03T09:40:43;1.90;;;0.97;;
7205;SDS011;3644;53.480;10.004;2022-09-03T09:43:15;8.30;;;1.10;;
7205;SDS011;3644;53.480;10.004;2022-09-03T09:45:47;2.80;;;2.20;;
7205;SDS011;3644;53.480;10.004;2022-09-03T09:50:40;7.90;;;1.20;;
7205;SDS011;3644;53.480;10.004;2022-09-03T09:53:09;3.17;;;1.00;;
7205;SDS011;3644;53.480;10.004;2022-09-03T09:55:47;5.53;;;1.20;;
7205;SDS011;3644;53.480;10.004;2022-09-03T09:58:18;6.37;;;1.43;;
7205;SDS011;3644;53.480;10.004;2022-09-03T10:00:55;13.07;;;1.53;;
7205;SDS011;3644;53.480;10.004;2022-09-03T10:03:20;9.50;;;1.33;;
7205;SDS011;3644;53.480;10.004;2022-09-03T10:05:55;4.73;;;1.30;;
7205;SDS011;3644;53.480;10.004;2022-09-03T10:08:24;2.80;;;1.10;;
7205;SDS011;3644;53.480;10.004;2022-09-03T10:10:50;2.20;;;1.40;;
